createdAt,value
2022-08-28T16:37:23.068Z,49.43
2022-08-28T16:47:26.547Z,50.73
2022-08-28T16:57:29.223Z,52.05
2022-08-28T17:07:31.386Z,54.15
2022-08-28T17:17:33.797Z,56.52
2022-08-28T17:27:36.247Z,55.34
2022-08-28T17:37:40.242Z,54.93
2022-08-28T17:47:42.213Z,57.85
2022-08-28T17:57:44.492Z,60.29
2022-08-28T18:07:46.856Z,61.48
2022-08-28T18:17:49.945Z,62.11
2022-08-28T18:27:51.831Z,62.55
2022-08-28T18:37:54.270Z,63.06
2022-08-28T18:47:56.185Z,63.74
2022-08-28T18:58:00.002Z,65.12
2022-08-28T19:08:02.504Z,66.15
2022-08-28T19:18:05.018Z,67.77
2022-08-28T19:28:07.945Z,68.97
2022-08-28T19:38:10.458Z,70.42
2022-08-28T19:48:12.806Z,72.01
2022-08-28T19:58:15.118Z,72.99
2022-08-28T20:08:17.794Z,74.17
2022-08-28T20:18:20.828Z,74.44
2022-08-28T20:28:22.754Z,75.24
2022-08-28T20:38:24.671Z,76.35
2022-08-28T20:48:26.834Z,76.79
2022-08-28T20:58:29.871Z,77.26
2022-08-28T21:08:31.990Z,78.10
2022-08-28T21:18:34.257Z,78.88
2022-08-28T21:28:37.184Z,79.26
2022-08-28T21:38:39.650Z,78.85
2022-08-28T21:48:43.511Z,79.40
2022-08-28T21:59:06.277Z,79.85
2022-08-28T22:09:09.759Z,80.04
2022-08-28T22:19:11.728Z,79.44
2022-08-28T22:29:14.025Z,79.37
2022-08-28T22:39:15.899Z,80.00
2022-08-28T22:49:17.839Z,80.45
2022-08-28T22:59:19.713Z,81.36
2022-08-28T23:09:22.294Z,82.12
2022-08-28T23:19:24.573Z,82.75
2022-08-28T23:29:26.879Z,83.74
2022-08-28T23:39:28.716Z,84.77
2022-08-28T23:49:30.982Z,86.11
2022-08-28T23:59:32.793Z,87.37
